Selene — 2FTP7 — position and weather

sailwx.info

Track history (hours):
 
Tides and Currents Weather Stations Pressure Air Temp Water Temp Dewpoint Dewpoint Depression Visibility Wind Speed Wind Dir Waves Ship Positions

Selene

Last reported at 2017-Aug-18 08:03 UTC. Time now 2017-Nov-23 10:56 UTC.
Position N 34°38' E 033°08'.
Warning: this ship's position is months out of date.

Length 13 m.

Type: Sailing vessel. MMSI: 235094148.

Date/timePositionNaut miles runAvg speedWind from/ knotsBaromVisibWave heightAir tempDewpointWater temp
2017-Aug-18 08:03N 34°38' E 033°08'0 7.1
2017-Aug-18 08:01N 34°38' E 033°08'4 7.2
2017-Aug-18 07:31N 34°37' E 033°04'3 5.3
2017-Aug-18 06:58N 34°36' E 033°01'0 0.0
2017-Aug-18 06:28N 34°36' E 033°01'0 0.0
2017-Aug-18 05:58N 34°36' E 033°01'0 0.0
2017-Aug-18 05:28N 34°36' E 033°01'0 0.0
2017-Aug-18 04:58N 34°36' E 033°01'0 0.0
2017-Aug-18 04:28N 34°36' E 033°01'0 0.0
2017-Aug-18 03:58N 34°36' E 033°01'0 0.0
2017-Aug-18 03:25N 34°36' E 033°01'0 0.0
2017-Aug-18 02:58N 34°36' E 033°01'0 0.0
2017-Aug-18 02:28N 34°36' E 033°01'0 0.0
2017-Aug-18 01:58N 34°36' E 033°01'0 0.0
2017-Aug-18 01:28N 34°36' E 033°01'0 0.0
2017-Aug-18 00:58N 34°36' E 033°01'0 0.0
2017-Aug-18 00:28N 34°36' E 033°01'0 0.0
2017-Aug-17 23:58N 34°36' E 033°01'0 0.0
2017-Aug-17 23:28N 34°36' E 033°01'0 0.0
2017-Aug-17 22:58N 34°36' E 033°01'0 0.0
2017-Aug-17 22:28N 34°36' E 033°01'0 0.0
2017-Aug-17 21:58N 34°36' E 033°01'0 0.0
2017-Aug-17 21:28N 34°36' E 033°01'0 0.0
2017-Aug-17 20:58N 34°36' E 033°01'0 0.0
2017-Aug-17 20:28N 34°36' E 033°01'0 0.0
2017-Aug-17 19:58N 34°36' E 033°01'0 0.0
2017-Aug-17 19:28N 34°36' E 033°01'0 0.0
2017-Aug-17 18:58N 34°36' E 033°01'0 0.0
2017-Aug-17 18:28N 34°36' E 033°01'0 0.0
2017-Aug-17 17:58N 34°36' E 033°01'0 0.0
2017-Aug-17 17:28N 34°36' E 033°01'0 0.0
2017-Aug-17 16:58N 34°36' E 033°01'0 0.0
2017-Aug-17 16:28N 34°36' E 033°01'1 1.3
2017-Aug-17 16:00N 34°36' E 033°01'2 4.8
2017-Aug-17 15:30N 34°33' E 033°02'3 6.5
2017-Aug-17 15:00N 34°33' E 032°58'41 1.9
2017-Aug-16 17:22N 35°02' E 032°24'0 0.0
2017-Aug-15 14:58N 35°02' E 032°24'0 0.0
2017-Aug-15 14:19N 35°02' E 032°24'  
2017-Aug-12 02:14N 34°34' E 032°52'2 6.6
2017-Aug-12 01:56N 34°33' E 032°55'3 6.3
2017-Aug-12 01:30N 34°33' E 032°58'3 6.5
2017-Aug-12 01:00N 34°33' E 033°02'4 6.2
2017-Aug-12 00:25N 34°34' E 033°06'2 6.1
2017-Aug-12 00:00N 34°35' E 033°09'  
Track history (hours):
 
Tides and Currents Weather Stations Pressure Air Temp Water Temp Dewpoint Dewpoint Depression Visibility Wind Speed Wind Dir Waves Ship Positions

Selene

Last reported at 2017-Aug-18 08:03 UTC. Time now 2017-Nov-23 10:56 UTC.
Position N 34°38' E 033°08'.
Warning: this ship's position is months out of date.

Length 13 m.

Type: Sailing vessel. MMSI: 235094148.

Date/timePositionNaut miles runAvg speedWind from/ knotsBaromVisibWave heightAir tempDewpointWater temp
2017-Aug-18 08:03N 34°38' E 033°08'0 7.1
2017-Aug-18 08:01N 34°38' E 033°08'4 7.2
2017-Aug-18 07:31N 34°37' E 033°04'3 5.3
2017-Aug-18 06:58N 34°36' E 033°01'0 0.0
2017-Aug-18 06:28N 34°36' E 033°01'0 0.0
2017-Aug-18 05:58N 34°36' E 033°01'0 0.0
2017-Aug-18 05:28N 34°36' E 033°01'0 0.0
2017-Aug-18 04:58N 34°36' E 033°01'0 0.0
2017-Aug-18 04:28N 34°36' E 033°01'0 0.0
2017-Aug-18 03:58N 34°36' E 033°01'0 0.0
2017-Aug-18 03:25N 34°36' E 033°01'0 0.0
2017-Aug-18 02:58N 34°36' E 033°01'0 0.0
2017-Aug-18 02:28N 34°36' E 033°01'0 0.0
2017-Aug-18 01:58N 34°36' E 033°01'0 0.0
2017-Aug-18 01:28N 34°36' E 033°01'0 0.0
2017-Aug-18 00:58N 34°36' E 033°01'0 0.0
2017-Aug-18 00:28N 34°36' E 033°01'0 0.0
2017-Aug-17 23:58N 34°36' E 033°01'0 0.0
2017-Aug-17 23:28N 34°36' E 033°01'0 0.0
2017-Aug-17 22:58N 34°36' E 033°01'0 0.0
2017-Aug-17 22:28N 34°36' E 033°01'0 0.0
2017-Aug-17 21:58N 34°36' E 033°01'0 0.0
2017-Aug-17 21:28N 34°36' E 033°01'0 0.0
2017-Aug-17 20:58N 34°36' E 033°01'0 0.0
2017-Aug-17 20:28N 34°36' E 033°01'0 0.0
2017-Aug-17 19:58N 34°36' E 033°01'0 0.0
2017-Aug-17 19:28N 34°36' E 033°01'0 0.0
2017-Aug-17 18:58N 34°36' E 033°01'0 0.0
2017-Aug-17 18:28N 34°36' E 033°01'0 0.0
2017-Aug-17 17:58N 34°36' E 033°01'0 0.0
2017-Aug-17 17:28N 34°36' E 033°01'0 0.0
2017-Aug-17 16:58N 34°36' E 033°01'0 0.0
2017-Aug-17 16:28N 34°36' E 033°01'1 1.3
2017-Aug-17 16:00N 34°36' E 033°01'2 4.8
2017-Aug-17 15:30N 34°33' E 033°02'3 6.5
2017-Aug-17 15:00N 34°33' E 032°58'41 1.9
2017-Aug-16 17:22N 35°02' E 032°24'0 0.0
2017-Aug-15 14:58N 35°02' E 032°24'0 0.0
2017-Aug-15 14:19N 35°02' E 032°24'  
2017-Aug-12 02:14N 34°34' E 032°52'2 6.6
2017-Aug-12 01:56N 34°33' E 032°55'3 6.3
2017-Aug-12 01:30N 34°33' E 032°58'3 6.5
2017-Aug-12 01:00N 34°33' E 033°02'4 6.2
2017-Aug-12 00:25N 34°34' E 033°06'2 6.1
2017-Aug-12 00:00N 34°35' E 033°09'  

Dump ship's entire track history